createdAt,value
2022-08-25T00:01:48.248Z,6.00
2022-08-25T00:04:53.837Z,6.15
2022-08-25T00:07:56.387Z,6.57
2022-08-25T00:11:03.465Z,6.30
2022-08-25T00:14:10.705Z,6.72
2022-08-25T00:17:13.371Z,6.20
2022-08-25T00:20:16.138Z,6.40
2022-08-25T00:23:19.598Z,6.70
2022-08-25T00:26:21.840Z,6.53
2022-08-25T00:29:26.197Z,6.68
2022-08-25T00:32:28.441Z,6.55
2022-08-25T00:35:31.060Z,6.80
2022-08-25T00:38:33.371Z,6.55
2022-08-25T00:41:37.465Z,6.12
2022-08-25T00:44:39.899Z,6.53
2022-08-25T00:47:42.445Z,6.60
2022-08-25T00:50:44.754Z,6.20
2022-08-25T00:53:47.950Z,5.85
2022-08-25T00:56:52.014Z,6.12
2022-08-25T00:59:55.076Z,5.68
2022-08-25T01:02:58.007Z,6.37
2022-08-25T01:06:03.189Z,6.57
2022-08-25T01:09:07.305Z,5.82
2022-08-25T01:12:10.254Z,5.37
2022-08-25T01:15:15.285Z,5.90
2022-08-25T01:18:17.837Z,5.68
2022-08-25T01:21:22.493Z,6.45
2022-08-25T01:24:32.674Z,6.07
2022-08-25T01:27:34.919Z,5.95
2022-08-25T01:30:38.710Z,6.20
2022-08-25T01:36:45.583Z,6.30
2022-08-25T01:39:48.721Z,6.07
2022-08-25T01:43:02.112Z,6.05
2022-08-25T01:46:04.964Z,5.67
2022-08-25T01:49:07.579Z,6.03
2022-08-25T01:52:18.601Z,6.03
2022-08-25T01:55:23.111Z,5.82
2022-08-25T01:58:30.928Z,6.22
2022-08-25T02:01:33.714Z,6.28
2022-08-25T02:04:37.368Z,6.77
2022-08-25T02:07:42.278Z,6.03
2022-08-25T02:10:46.449Z,6.05
2022-08-25T02:13:48.858Z,6.12
2022-08-25T02:16:53.583Z,6.23
2022-08-25T02:19:57.056Z,6.00
2022-08-25T02:23:00.193Z,5.68
2022-08-25T02:26:02.627Z,6.47
2022-08-25T02:29:06.841Z,6.80
2022-08-25T02:32:09.283Z,6.43
2022-08-25T02:35:13.551Z,6.00
2022-08-25T02:38:15.748Z,6.12
2022-08-25T02:41:22.110Z,6.35
2022-08-25T02:44:31.787Z,6.75
2022-08-25T02:47:34.815Z,6.85
2022-08-25T02:50:37.122Z,6.20
2022-08-25T02:53:42.217Z,6.22
2022-08-25T02:56:44.481Z,5.70
2022-08-25T02:59:48.481Z,6.43
2022-08-25T03:02:50.820Z,6.37
2022-08-25T03:05:53.887Z,5.82
2022-08-25T03:08:56.284Z,5.73
2022-08-25T03:11:58.788Z,6.37
2022-08-25T03:15:01.051Z,5.90
2022-08-25T03:18:05.549Z,5.85
2022-08-25T03:21:12.258Z,5.95
2022-08-25T03:24:14.783Z,6.22
2022-08-25T03:27:17.095Z,6.35
2022-08-25T03:30:20.441Z,6.18
2022-08-25T03:33:22.764Z,6.28
2022-08-25T03:36:25.960Z,5.68
2022-08-25T03:39:29.002Z,5.90
2022-08-25T03:42:31.876Z,6.32
2022-08-25T03:45:34.197Z,6.10
2022-08-25T03:48:36.778Z,6.57
2022-08-25T03:51:57.268Z,6.22
2022-08-25T03:54:59.794Z,5.75
2022-08-25T03:58:02.175Z,6.07
2022-08-25T04:01:04.852Z,5.93
2022-08-25T04:04:08.888Z,6.28
2022-08-25T04:07:12.204Z,6.47
2022-08-25T04:13:16.857Z,6.25
2022-08-25T04:16:25.376Z,7.00
2022-08-25T04:19:27.662Z,5.80
2022-08-25T04:22:31.098Z,5.93
2022-08-25T04:25:42.099Z,6.90
2022-08-25T04:28:44.729Z,6.40
2022-08-25T04:31:50.137Z,6.35
2022-08-25T04:34:52.843Z,6.40
2022-08-25T04:37:55.058Z,8.05
2022-08-25T04:41:03.448Z,6.12
2022-08-25T04:44:06.384Z,6.25
2022-08-25T04:47:09.755Z,6.78
2022-08-25T04:50:12.053Z,6.78
2022-08-25T04:53:15.722Z,5.75
2022-08-25T04:56:26.153Z,7.20
2022-08-25T04:59:30.164Z,7.00
2022-08-25T05:02:32.985Z,6.80
2022-08-25T05:05:37.930Z,6.37
2022-08-25T05:08:40.933Z,6.43
2022-08-25T05:11:43.480Z,6.85
2022-08-25T05:14:45.932Z,6.57
2022-08-25T05:17:51.588Z,7.73
2022-08-25T05:20:57.879Z,6.82
2022-08-25T05:24:01.581Z,7.65
2022-08-25T05:27:04.053Z,6.50
2022-08-25T05:30:07.365Z,7.43
2022-08-25T05:33:11.227Z,7.40
2022-08-25T05:36:16.179Z,7.32
2022-08-25T05:39:18.518Z,6.72
2022-08-25T05:42:22.462Z,7.03
2022-08-25T05:48:29.449Z,6.47
2022-08-25T05:51:31.877Z,6.47
2022-08-25T05:54:34.425Z,7.03
2022-08-25T05:57:36.838Z,6.50
2022-08-25T06:00:40.208Z,6.53
2022-08-25T06:03:42.825Z,6.45
2022-08-25T06:06:45.285Z,6.62
2022-08-25T06:09:48.980Z,7.33
2022-08-25T06:12:51.855Z,8.35
2022-08-25T06:15:59.969Z,6.82
2022-08-25T06:19:03.277Z,6.97
2022-08-25T06:25:09.925Z,5.95
2022-08-25T06:28:12.455Z,6.78
2022-08-25T06:31:15.075Z,6.15
2022-08-25T06:34:18.773Z,6.07
2022-08-25T06:37:25.149Z,5.78
2022-08-25T06:40:28.034Z,5.50
2022-08-25T06:43:30.603Z,4.75
2022-08-25T06:46:36.328Z,5.40
2022-08-25T06:49:39.324Z,5.00
2022-08-25T06:52:43.098Z,4.87
2022-08-25T06:58:48.335Z,4.82
2022-08-25T07:04:57.578Z,5.45
2022-08-25T07:08:00.018Z,4.95
2022-08-25T07:11:16.057Z,5.97
2022-08-25T07:14:19.716Z,4.05
2022-08-25T07:17:23.667Z,4.82
2022-08-25T07:20:29.557Z,4.40
2022-08-25T07:23:33.762Z,4.43
2022-08-25T07:26:39.104Z,4.32
2022-08-25T07:29:56.288Z,4.62
2022-08-25T07:32:59.542Z,5.07
2022-08-25T07:36:03.742Z,4.37
2022-08-25T07:39:06.116Z,4.40
2022-08-25T07:42:15.924Z,4.30
2022-08-25T07:45:21.611Z,4.50
2022-08-25T07:48:27.003Z,4.65
2022-08-25T07:51:29.316Z,5.00
2022-08-25T07:54:34.106Z,4.30
2022-08-25T07:57:39.915Z,4.90
2022-08-25T08:00:42.561Z,4.80
2022-08-25T08:03:50.833Z,4.57
2022-08-25T08:06:53.738Z,5.22
2022-08-25T08:10:27.939Z,3.75
2022-08-25T08:13:19.448Z,3.65
2022-08-25T08:16:27.508Z,3.55
2022-08-25T08:19:29.900Z,3.20
2022-08-25T08:22:32.990Z,3.20
2022-08-25T08:25:35.236Z,3.42
2022-08-25T08:28:39.751Z,3.50
2022-08-25T08:31:48.580Z,3.20
2022-08-25T08:34:56.387Z,3.95
2022-08-25T08:38:00.763Z,3.80
2022-08-25T08:42:09.695Z,3.60
2022-08-25T08:45:40.238Z,3.65
2022-08-25T08:49:03.369Z,3.47
2022-08-25T08:52:09.848Z,3.40
2022-08-25T08:55:52.759Z,3.72
2022-08-25T08:59:10.612Z,3.58
2022-08-25T09:02:39.271Z,3.33
2022-08-25T09:05:54.402Z,3.67
2022-08-25T09:08:59.509Z,3.47
2022-08-25T09:12:21.878Z,3.45
2022-08-25T09:16:20.672Z,3.70
2022-08-25T09:19:44.504Z,3.90
2022-08-25T09:23:13.253Z,3.55
2022-08-25T09:26:39.711Z,3.10
2022-08-25T09:30:05.760Z,3.85
2022-08-25T09:33:10.066Z,3.80
2022-08-25T09:36:12.740Z,2.97
2022-08-25T09:39:15.212Z,3.37
2022-08-25T09:42:23.757Z,3.15
2022-08-25T09:45:45.337Z,3.42
2022-08-25T09:49:10.654Z,3.22
2022-08-25T09:52:32.733Z,3.33
2022-08-25T09:55:41.165Z,2.80
2022-08-25T09:58:44.117Z,3.62
2022-08-25T10:01:52.251Z,2.90
2022-08-25T10:04:56.480Z,2.95
2022-08-25T10:08:01.088Z,2.90
2022-08-25T10:11:13.112Z,3.25
2022-08-25T10:14:44.244Z,3.45
2022-08-25T10:17:47.884Z,2.72
2022-08-25T10:21:03.355Z,3.05
2022-08-25T10:24:11.429Z,3.15
2022-08-25T10:27:16.416Z,2.80
2022-08-25T10:30:34.239Z,3.10
2022-08-25T10:33:43.118Z,2.95
2022-08-25T10:37:09.325Z,2.62
2022-08-25T10:40:44.610Z,2.72
2022-08-25T10:44:05.868Z,3.05
2022-08-25T10:47:37.729Z,2.40
2022-08-25T10:50:49.212Z,2.80
2022-08-25T10:54:16.208Z,3.05
2022-08-25T10:57:48.744Z,2.60
2022-08-25T11:01:43.912Z,2.90
2022-08-25T11:05:06.838Z,3.10
2022-08-25T11:08:12.650Z,3.10
2022-08-25T11:11:31.705Z,2.90
2022-08-25T11:14:42.975Z,2.85
2022-08-25T11:17:55.520Z,3.10
2022-08-25T11:21:09.732Z,3.33
2022-08-25T11:24:18.646Z,2.58
2022-08-25T11:27:31.197Z,3.12
2022-08-25T11:30:33.889Z,3.58
2022-08-25T11:33:39.357Z,3.30
2022-08-25T11:37:14.597Z,3.25
2022-08-25T11:40:50.309Z,3.20
2022-08-25T11:44:18.966Z,3.65
2022-08-25T11:47:30.448Z,3.15
2022-08-25T11:51:06.646Z,2.75
2022-08-25T11:54:44.703Z,2.80
2022-08-25T11:57:53.415Z,3.53
2022-08-25T12:00:58.501Z,2.65
2022-08-25T12:04:31.224Z,3.85
2022-08-25T12:08:22.903Z,2.78
2022-08-25T12:11:50.265Z,3.35
2022-08-25T12:14:52.596Z,3.28
2022-08-25T12:18:09.419Z,3.25
2022-08-25T12:21:15.056Z,4.12
2022-08-25T12:24:22.324Z,3.30
2022-08-25T12:27:49.559Z,3.75
2022-08-25T12:31:01.298Z,3.70
2022-08-25T12:34:13.153Z,3.28
2022-08-25T12:37:19.836Z,3.10
2022-08-25T12:40:40.985Z,3.50
2022-08-25T12:43:49.150Z,3.25
2022-08-25T12:47:27.221Z,3.00
2022-08-25T12:50:35.175Z,3.47
2022-08-25T12:53:43.673Z,3.53
2022-08-25T12:56:53.063Z,5.60
2022-08-25T13:00:01.179Z,3.58
2022-08-25T13:07:17.405Z,4.20
2022-08-25T13:10:44.444Z,3.37
2022-08-25T13:14:14.738Z,2.90
2022-08-25T13:17:34.968Z,3.03
2022-08-25T13:20:37.202Z,3.30
2022-08-25T13:23:43.152Z,3.53
2022-08-25T13:26:50.265Z,3.10
2022-08-25T13:29:56.496Z,3.33
2022-08-25T13:32:59.911Z,3.33
2022-08-25T13:36:22.234Z,3.45
2022-08-25T13:39:45.952Z,3.25
2022-08-25T13:42:55.943Z,4.00
2022-08-25T13:45:58.877Z,3.00
2022-08-25T13:49:06.917Z,3.30
2022-08-25T13:52:38.861Z,3.62
2022-08-25T13:55:50.821Z,3.42
2022-08-25T13:58:56.420Z,3.53
2022-08-25T14:02:00.221Z,3.70
2022-08-25T14:05:03.056Z,3.75
2022-08-25T14:08:16.161Z,2.90
2022-08-25T14:11:33.388Z,3.30
2022-08-25T14:14:36.182Z,3.53
2022-08-25T14:17:42.599Z,3.40
2022-08-25T14:20:50.927Z,3.40
2022-08-25T14:23:55.407Z,3.60
2022-08-25T14:26:57.658Z,3.62
2022-08-25T14:30:00.954Z,3.87
2022-08-25T14:33:04.166Z,3.80
2022-08-25T14:36:07.416Z,3.45
2022-08-25T14:39:11.364Z,3.78
2022-08-25T14:42:14.078Z,3.55
2022-08-25T14:45:18.866Z,3.97
2022-08-25T14:48:35.268Z,3.53
2022-08-25T14:51:43.373Z,3.28
2022-08-25T14:54:47.011Z,3.62
2022-08-25T14:57:49.231Z,3.60
2022-08-25T15:00:51.882Z,3.75
2022-08-25T15:04:02.095Z,3.90
2022-08-25T15:07:25.157Z,3.60
2022-08-25T15:10:27.421Z,3.72
2022-08-25T15:13:29.932Z,3.85
2022-08-25T15:16:59.521Z,4.05
2022-08-25T15:20:02.259Z,4.32
2022-08-25T15:23:08.894Z,4.43
2022-08-25T15:26:15.473Z,4.70
2022-08-25T15:29:18.579Z,4.28
2022-08-25T15:32:21.104Z,3.75
2022-08-25T15:35:23.680Z,3.85
2022-08-25T15:38:31.690Z,3.92
2022-08-25T15:41:35.021Z,3.80
2022-08-25T15:44:40.352Z,3.40
2022-08-25T15:47:43.695Z,3.67
2022-08-25T15:50:47.734Z,4.00
2022-08-25T15:53:50.026Z,3.72
2022-08-25T15:56:53.200Z,4.60
2022-08-25T15:59:57.149Z,4.60
2022-08-25T16:03:00.933Z,4.37
2022-08-25T16:06:04.989Z,4.00
2022-08-25T16:09:08.209Z,4.00
2022-08-25T16:12:11.122Z,4.30
2022-08-25T16:15:15.750Z,4.37
2022-08-25T16:21:25.588Z,3.33
2022-08-25T16:24:28.363Z,3.72
2022-08-25T16:27:38.757Z,3.78
2022-08-25T16:30:52.641Z,3.95
2022-08-25T16:33:58.171Z,3.30
2022-08-25T16:37:01.751Z,3.45
2022-08-25T16:40:04.578Z,3.55
2022-08-25T16:46:13.257Z,3.83
2022-08-25T16:49:16.140Z,3.47
2022-08-25T16:52:37.200Z,3.75
2022-08-25T16:55:39.884Z,4.45
2022-08-25T16:58:42.284Z,4.05
2022-08-25T17:01:52.646Z,4.22
2022-08-25T17:04:54.999Z,3.78
2022-08-25T17:11:27.957Z,4.25
2022-08-25T17:14:30.594Z,4.00
2022-08-25T17:17:35.997Z,3.87
2022-08-25T17:20:40.659Z,4.05
2022-08-25T17:23:43.981Z,3.97
2022-08-25T17:26:50.088Z,3.65
2022-08-25T17:29:52.420Z,4.20
2022-08-25T17:32:54.964Z,3.87
2022-08-25T17:35:57.703Z,3.80
2022-08-25T17:42:02.553Z,3.83
2022-08-25T17:45:07.248Z,6.10
2022-08-25T17:48:09.661Z,6.00
2022-08-25T17:51:12.824Z,4.85
2022-08-25T17:54:18.701Z,4.53
2022-08-25T17:57:21.373Z,3.47
2022-08-25T18:00:24.222Z,4.27
2022-08-25T18:03:27.666Z,4.00
2022-08-25T18:09:33.667Z,4.00
2022-08-25T18:12:37.031Z,3.97
2022-08-25T18:15:42.434Z,3.97
2022-08-25T18:18:45.251Z,3.90
2022-08-25T18:21:48.169Z,3.30
2022-08-25T18:24:51.096Z,4.37
2022-08-25T18:30:57.998Z,4.05
2022-08-25T18:34:00.626Z,4.10
2022-08-25T18:37:24.053Z,4.30
2022-08-25T18:43:33.779Z,3.92
2022-08-25T18:46:36.701Z,3.78
2022-08-25T18:49:39.586Z,3.62
2022-08-25T18:52:42.162Z,3.60
2022-08-25T18:58:48.381Z,4.40
2022-08-25T19:01:51.475Z,5.22
2022-08-25T19:04:54.374Z,4.65
2022-08-25T19:07:56.644Z,5.00
2022-08-25T19:10:59.237Z,4.20
2022-08-25T19:14:01.730Z,4.47
2022-08-25T19:17:04.414Z,4.20
2022-08-25T19:23:13.967Z,4.07
2022-08-25T19:26:17.357Z,5.18
2022-08-25T19:29:20.540Z,4.50
2022-08-25T19:32:23.036Z,4.78
2022-08-25T19:35:45.338Z,4.85
2022-08-25T19:38:49.179Z,3.92
2022-08-25T19:41:56.367Z,4.50
2022-08-25T19:44:59.579Z,3.92
2022-08-25T19:48:02.694Z,3.58
2022-08-25T19:51:05.005Z,4.70
2022-08-25T19:54:10.243Z,3.90
2022-08-25T19:57:27.701Z,4.15
2022-08-25T20:00:34.188Z,3.92
2022-08-25T20:03:39.872Z,3.75
2022-08-25T20:06:42.420Z,4.33
2022-08-25T20:09:45.214Z,4.87
2022-08-25T20:12:47.776Z,4.72
2022-08-25T20:15:53.195Z,4.30
2022-08-25T20:19:01.133Z,4.05
2022-08-25T20:22:05.411Z,4.50
2022-08-25T20:25:14.425Z,3.90
2022-08-25T20:28:18.612Z,3.85
2022-08-25T20:31:21.503Z,3.90
2022-08-25T20:34:24.161Z,3.65
2022-08-25T20:37:26.470Z,3.83
2022-08-25T20:40:30.339Z,3.87
2022-08-25T20:43:34.541Z,4.62
2022-08-25T20:46:39.052Z,3.85
2022-08-25T20:49:44.551Z,4.18
2022-08-25T20:52:48.560Z,3.92
2022-08-25T20:55:50.968Z,3.62
2022-08-25T21:01:56.992Z,3.97
2022-08-25T21:04:59.631Z,4.20
2022-08-25T21:08:04.570Z,3.70
2022-08-25T21:11:08.107Z,3.97
2022-08-25T21:17:15.245Z,3.83
2022-08-25T21:20:18.435Z,3.95
2022-08-25T21:23:22.103Z,3.90
2022-08-25T21:26:29.423Z,4.43
2022-08-25T21:29:32.849Z,4.05
2022-08-25T21:32:35.141Z,4.22
2022-08-25T21:35:41.319Z,5.13
2022-08-25T21:38:46.636Z,4.57
2022-08-25T21:41:49.317Z,4.03
2022-08-25T21:44:52.447Z,4.40
2022-08-25T21:47:55.062Z,3.75
2022-08-25T21:51:09.088Z,3.90
2022-08-25T21:54:15.999Z,3.90
2022-08-25T21:57:23.539Z,4.57
2022-08-25T22:00:32.414Z,3.92
2022-08-25T22:03:36.905Z,4.18
2022-08-25T22:06:41.297Z,4.10
2022-08-25T22:09:45.642Z,4.12
2022-08-25T22:12:48.518Z,5.03
2022-08-25T22:15:52.104Z,3.95
2022-08-25T22:18:56.132Z,4.62
2022-08-25T22:21:58.789Z,3.92
2022-08-25T22:25:01.041Z,4.22
2022-08-25T22:28:05.291Z,4.80
2022-08-25T22:31:08.045Z,4.35
2022-08-25T22:34:10.803Z,4.50
2022-08-25T22:37:17.657Z,4.87
2022-08-25T22:40:20.217Z,4.68
2022-08-25T22:43:22.849Z,4.60
2022-08-25T22:46:27.904Z,4.60
2022-08-25T22:49:30.345Z,4.87
2022-08-25T22:52:33.994Z,5.17
2022-08-25T22:55:42.469Z,4.85
2022-08-25T22:58:51.560Z,4.35
2022-08-25T23:01:56.436Z,5.12
2022-08-25T23:05:00.879Z,4.60
2022-08-25T23:08:03.648Z,5.97
2022-08-25T23:11:10.046Z,4.75
2022-08-25T23:14:13.006Z,5.25
2022-08-25T23:17:15.725Z,4.72
2022-08-25T23:20:36.772Z,4.60
2022-08-25T23:23:48.066Z,5.70
2022-08-25T23:26:51.396Z,4.45
2022-08-25T23:29:54.408Z,5.35
2022-08-25T23:32:56.696Z,5.50
2022-08-25T23:36:05.204Z,5.57
2022-08-25T23:39:07.783Z,5.47
2022-08-25T23:42:10.544Z,5.45
2022-08-25T23:45:14.220Z,5.18
2022-08-25T23:48:18.651Z,5.40
2022-08-25T23:51:33.542Z,4.85
2022-08-25T23:54:36.100Z,5.25
2022-08-25T23:57:38.837Z,5.63
